createdAt,value
2018-12-29T00:02:13.803Z,0.13
2018-12-29T00:04:42.891Z,0.31
2018-12-29T00:07:12.047Z,0.30
2018-12-29T00:09:40.748Z,0.22
2018-12-29T00:12:09.786Z,0.20
2018-12-29T00:14:38.766Z,0.25
2018-12-29T00:17:07.462Z,0.31
2018-12-29T00:19:36.147Z,0.32
2018-12-29T00:22:05.022Z,0.36
2018-12-29T00:24:33.713Z,0.49
2018-12-29T00:27:03.228Z,0.42
2018-12-29T00:29:31.920Z,0.35
2018-12-29T00:32:00.607Z,0.42
2018-12-29T00:34:29.311Z,0.43
2018-12-29T00:36:59.192Z,0.38
2018-12-29T00:39:28.292Z,0.37
2018-12-29T00:41:56.981Z,0.37
2018-12-29T00:44:25.667Z,0.49
2018-12-29T00:46:54.361Z,0.49
2018-12-29T00:49:23.042Z,0.42
2018-12-29T00:51:52.045Z,0.41
2018-12-29T00:54:20.731Z,0.45
2018-12-29T00:56:49.499Z,0.62
2018-12-29T00:59:18.399Z,0.59
2018-12-29T01:01:47.347Z,0.36
2018-12-29T01:04:16.063Z,0.25
2018-12-29T01:06:44.827Z,0.23
2018-12-29T01:09:13.852Z,0.19
2018-12-29T01:11:42.613Z,-0.05
2018-12-29T01:14:11.314Z,-0.04
2018-12-29T01:16:40.007Z,0.14
2018-12-29T01:19:08.960Z,0.00
2018-12-29T01:21:37.652Z,0.07
2018-12-29T01:24:06.412Z,-0.11
2018-12-29T01:26:35.097Z,-0.06
2018-12-29T01:29:04.131Z,0.22
2018-12-29T01:31:32.827Z,0.06
2018-12-29T01:34:01.827Z,-0.03
2018-12-29T01:36:30.825Z,-0.07
2018-12-29T01:38:59.595Z,-0.08
2018-12-29T01:41:28.344Z,0.03
2018-12-29T01:43:57.045Z,-0.20
2018-12-29T01:46:25.736Z,-0.26
2018-12-29T01:48:54.437Z,-0.29
2018-12-29T01:51:23.162Z,-0.14
2018-12-29T01:53:52.157Z,-0.09
2018-12-29T01:56:20.922Z,-0.13
2018-12-29T01:58:49.637Z,0.01
2018-12-29T02:01:18.408Z,0.02
2018-12-29T02:03:47.390Z,-0.08
2018-12-29T02:06:16.106Z,-0.09
2018-12-29T02:08:44.792Z,-0.17
2018-12-29T02:11:13.489Z,-0.28
2018-12-29T02:13:42.256Z,-0.31
2018-12-29T02:16:11.534Z,-0.28
2018-12-29T02:18:40.622Z,-0.26
2018-12-29T02:21:09.397Z,-0.11
2018-12-29T02:23:38.102Z,-0.02
2018-12-29T02:26:06.789Z,-0.10
2018-12-29T02:28:35.483Z,-0.09
2018-12-29T02:31:04.502Z,-0.18
2018-12-29T02:33:33.228Z,-0.21
2018-12-29T02:36:01.913Z,-0.20
2018-12-29T02:38:30.614Z,-0.22
2018-12-29T02:40:59.376Z,-0.07
2018-12-29T02:43:28.403Z,0.10
2018-12-29T02:45:57.103Z,0.30
2018-12-29T02:48:25.793Z,0.33
2018-12-29T02:50:54.491Z,0.41
2018-12-29T02:53:24.153Z,0.18
2018-12-29T02:55:52.963Z,0.05
2018-12-29T02:58:22.105Z,-0.01
2018-12-29T03:00:50.797Z,0.08
2018-12-29T03:03:19.488Z,0.06
2018-12-29T03:05:48.176Z,0.00
2018-12-29T03:08:16.888Z,-0.14
2018-12-29T03:10:45.575Z,-0.23
2018-12-29T03:13:14.271Z,-0.16
2018-12-29T03:15:42.967Z,-0.25
2018-12-29T03:18:11.647Z,-0.23
2018-12-29T03:20:40.662Z,-0.18
2018-12-29T03:23:09.341Z,-0.10
2018-12-29T03:25:38.102Z,-0.06
2018-12-29T03:28:06.789Z,-0.18
2018-12-29T03:30:35.679Z,-0.11
2018-12-29T03:35:40.115Z,-0.13
2018-12-29T03:38:08.883Z,-0.08
2018-12-29T03:40:37.960Z,0.03
2018-12-29T03:43:06.771Z,0.27
2018-12-29T03:45:35.534Z,0.33
2018-12-29T03:48:04.553Z,0.48
2018-12-29T03:53:07.152Z,0.84
2018-12-29T03:55:35.913Z,0.65
2018-12-29T03:58:04.729Z,0.59
2018-12-29T04:00:33.480Z,0.28
2018-12-29T04:03:02.182Z,0.32
2018-12-29T04:05:31.614Z,0.15
2018-12-29T04:08:00.604Z,0.13
2018-12-29T04:10:29.275Z,0.11
2018-12-29T04:12:59.981Z,0.28
2018-12-29T04:15:28.682Z,0.47
2018-12-29T04:17:57.365Z,0.66
2018-12-29T04:20:26.125Z,0.70
2018-12-29T04:22:54.882Z,0.56
2018-12-29T04:25:25.512Z,0.34
2018-12-29T04:30:28.610Z,0.30
2018-12-29T04:32:57.290Z,0.20
2018-12-29T04:35:25.984Z,0.20
2018-12-29T04:37:55.269Z,0.19
2018-12-29T04:40:23.957Z,0.31
2018-12-29T04:42:52.972Z,0.19
2018-12-29T04:45:21.715Z,0.17
2018-12-29T04:47:50.398Z,0.09
2018-12-29T04:50:19.158Z,0.11
2018-12-29T04:52:47.842Z,0.03
2018-12-29T04:55:16.629Z,-0.06
2018-12-29T04:57:45.301Z,-0.03
2018-12-29T05:00:13.988Z,0.02
2018-12-29T05:03:01.921Z,0.38
2018-12-29T05:05:30.608Z,0.34
2018-12-29T05:07:59.314Z,0.28
2018-12-29T05:10:27.998Z,0.25
2018-12-29T05:12:56.680Z,0.33
2018-12-29T05:15:25.373Z,0.52
2018-12-29T05:17:54.064Z,0.37
2018-12-29T05:20:22.756Z,0.33
2018-12-29T05:23:10.411Z,0.33
2018-12-29T05:25:39.135Z,0.33
2018-12-29T05:28:07.821Z,0.30
2018-12-29T05:30:36.501Z,0.31
2018-12-29T05:33:05.198Z,0.33
2018-12-29T05:35:33.893Z,0.18
2018-12-29T05:38:21.808Z,0.06
2018-12-29T05:40:50.865Z,0.07
2018-12-29T05:43:19.569Z,-0.01
2018-12-29T05:46:07.579Z,0.05
2018-12-29T05:48:36.274Z,-0.03
2018-12-29T05:51:24.302Z,-0.05
2018-12-29T05:53:52.992Z,0.08
2018-12-29T05:56:21.678Z,-0.02
2018-12-29T05:58:50.548Z,-0.07
2018-12-29T06:01:38.556Z,-0.07
2018-12-29T06:04:26.456Z,0.16
2018-12-29T06:06:55.140Z,0.15
2018-12-29T06:09:23.841Z,0.06
2018-12-29T06:11:52.538Z,-0.05
2018-12-29T06:14:21.238Z,-0.09
2018-12-29T06:16:49.944Z,0.17
2018-12-29T06:19:18.974Z,0.32
2018-12-29T06:24:22.188Z,0.45
2018-12-29T06:26:50.912Z,0.40
2018-12-29T06:29:19.608Z,0.44
2018-12-29T06:31:48.319Z,0.62
2018-12-29T06:34:17.021Z,0.48
2018-12-29T06:39:52.807Z,0.43
2018-12-29T06:42:21.503Z,0.54
2018-12-29T06:44:50.218Z,0.69
2018-12-29T06:47:18.918Z,0.80
2018-12-29T06:49:47.941Z,0.97
2018-12-29T06:52:16.686Z,0.98
2018-12-29T06:54:45.381Z,1.25
2018-12-29T07:00:07.372Z,1.14
2018-12-29T07:05:10.991Z,1.07
2018-12-29T07:10:13.618Z,0.92
2018-12-29T07:12:42.594Z,0.93
2018-12-29T07:15:11.276Z,1.20
2018-12-29T07:17:39.959Z,1.20
2018-12-29T07:20:08.656Z,1.18
2018-12-29T07:22:37.334Z,1.24
2018-12-29T07:25:06.153Z,1.31
2018-12-29T07:27:34.911Z,1.17
2018-12-29T07:30:22.728Z,0.89
2018-12-29T07:32:51.415Z,0.91
2018-12-29T07:35:20.106Z,1.20
2018-12-29T07:37:48.790Z,1.12
2018-12-29T07:40:17.470Z,0.92
2018-12-29T07:42:46.159Z,1.00
2018-12-29T07:45:14.867Z,0.88
2018-12-29T07:47:43.677Z,0.85
2018-12-29T07:50:31.588Z,0.70
2018-12-29T07:53:00.340Z,0.86
2018-12-29T07:55:29.034Z,0.86
2018-12-29T08:00:32.403Z,0.96
2018-12-29T08:03:01.186Z,1.07
2018-12-29T08:05:29.862Z,1.17
2018-12-29T08:07:58.908Z,0.85
2018-12-29T08:10:27.624Z,0.70
2018-12-29T08:12:56.300Z,0.75
2018-12-29T08:17:59.112Z,0.59
2018-12-29T08:23:02.556Z,0.78
2018-12-29T08:25:31.250Z,0.91
2018-12-29T08:27:59.946Z,0.82
2018-12-29T08:30:28.631Z,0.98
2018-12-29T08:35:32.109Z,1.23
2018-12-29T08:40:34.882Z,1.34
2018-12-29T08:43:03.700Z,1.52
2018-12-29T08:45:32.460Z,1.54
2018-12-29T08:48:01.253Z,1.54
2018-12-29T08:50:30.041Z,1.36
2018-12-29T08:52:58.827Z,1.38
2018-12-29T08:58:02.145Z,1.47
2018-12-29T09:03:05.228Z,1.25
2018-12-29T09:05:33.924Z,1.22
2018-12-29T09:08:02.890Z,1.20
2018-12-29T09:10:31.593Z,1.23
2018-12-29T09:15:34.653Z,0.87
2018-12-29T09:18:03.443Z,0.86
2018-12-29T09:20:32.177Z,1.01
2018-12-29T09:23:00.880Z,1.24
2018-12-29T09:25:29.978Z,1.45
2018-12-29T09:28:17.874Z,1.63
2018-12-29T09:33:20.714Z,1.38
2018-12-29T09:38:43.809Z,1.39
2018-12-29T09:41:31.787Z,1.55
2018-12-29T09:46:35.285Z,1.74
2018-12-29T09:49:04.066Z,2.14
2018-12-29T09:51:32.834Z,2.04
2018-12-29T09:54:01.556Z,1.66
2018-12-29T09:59:23.724Z,2.02
2018-12-29T10:01:52.551Z,1.95
2018-12-29T10:04:21.238Z,1.98
2018-12-29T10:06:50.007Z,2.10
2018-12-29T10:09:18.704Z,2.18
2018-12-29T10:11:47.396Z,2.16
2018-12-29T10:14:35.309Z,2.31
2018-12-29T10:17:04.008Z,2.42
2018-12-29T10:19:33.131Z,2.38
2018-12-29T10:22:01.798Z,2.38
2018-12-29T10:24:49.954Z,2.41
2018-12-29T10:27:18.671Z,2.52
2018-12-29T10:30:06.780Z,2.74
2018-12-29T10:35:10.371Z,2.55
2018-12-29T10:37:39.378Z,2.28
2018-12-29T10:40:08.425Z,2.13
2018-12-29T10:42:37.127Z,2.11
2018-12-29T10:50:35.997Z,1.96
2018-12-29T10:53:04.953Z,2.11
2018-12-29T10:55:34.142Z,2.16
2018-12-29T10:58:02.996Z,2.28
2018-12-29T11:00:35.195Z,2.54
2018-12-29T11:03:02.591Z,2.55
2018-12-29T11:05:32.024Z,2.13
2018-12-29T11:08:01.192Z,2.11
2018-12-29T11:11:09.873Z,2.27
2018-12-29T11:13:39.098Z,2.26
2018-12-29T11:16:09.681Z,2.17
2018-12-29T11:21:12.735Z,1.95
2018-12-29T11:23:41.539Z,1.75
2018-12-29T11:26:10.679Z,1.71
2018-12-29T11:28:40.084Z,1.58
2018-12-29T11:31:09.025Z,1.55
2018-12-29T11:33:37.843Z,1.82
2018-12-29T11:36:06.762Z,1.73
2018-12-29T11:43:58.019Z,1.61
2018-12-29T11:46:26.819Z,1.73
2018-12-29T11:48:55.726Z,2.02
2018-12-29T11:51:24.842Z,2.03
2018-12-29T11:53:53.587Z,1.95
2018-12-29T11:56:41.678Z,1.97
2018-12-29T11:59:12.305Z,1.86
2018-12-29T12:01:41.124Z,1.84
2018-12-29T12:04:10.011Z,1.92
2018-12-29T12:06:38.874Z,2.11
2018-12-29T12:09:07.869Z,2.00
2018-12-29T12:11:37.289Z,1.88
2018-12-29T12:14:06.220Z,1.83
2018-12-29T12:16:35.027Z,2.00
2018-12-29T12:19:03.945Z,2.23
2018-12-29T12:21:32.979Z,2.24
2018-12-29T12:26:36.002Z,2.33
2018-12-29T12:29:04.837Z,2.36
2018-12-29T12:31:35.295Z,2.59
2018-12-29T12:34:23.377Z,2.49
2018-12-29T12:36:52.363Z,2.46
2018-12-29T12:39:21.238Z,2.41
2018-12-29T12:41:50.035Z,2.32
2018-12-29T12:44:19.003Z,2.32
2018-12-29T12:49:43.141Z,2.30
2018-12-29T12:52:12.013Z,2.66
2018-12-29T12:57:34.207Z,2.79
2018-12-29T13:00:44.917Z,2.91
2018-12-29T13:03:14.040Z,2.76
2018-12-29T13:08:36.910Z,2.47
2018-12-29T13:11:25.179Z,2.38
2018-12-29T13:13:53.979Z,2.45
2018-12-29T13:16:22.682Z,2.40
2018-12-29T13:19:10.738Z,2.70
2018-12-29T13:21:39.832Z,2.53
2018-12-29T13:26:43.334Z,2.39
2018-12-29T13:32:05.424Z,2.45
2018-12-29T13:34:54.561Z,2.46
2018-12-29T13:37:25.360Z,2.56
2018-12-29T13:39:54.711Z,2.49
2018-12-29T13:42:23.410Z,2.46
2018-12-29T13:44:52.942Z,2.33
2018-12-29T13:48:01.707Z,2.39
2018-12-29T13:50:30.873Z,2.57
2018-12-29T13:52:59.735Z,2.83
2018-12-29T13:55:28.672Z,2.76
2018-12-29T13:57:57.397Z,2.83
2018-12-29T14:03:00.565Z,2.39
2018-12-29T14:08:04.857Z,2.30
2018-12-29T14:10:33.804Z,2.26
2018-12-29T14:13:02.719Z,2.24
2018-12-29T14:15:33.182Z,2.16
2018-12-29T14:18:01.900Z,2.24
2018-12-29T14:20:30.646Z,2.31
2018-12-29T14:22:59.571Z,2.25
2018-12-29T14:25:28.463Z,2.28
2018-12-29T14:27:59.397Z,2.23
2018-12-29T14:30:47.221Z,2.18
2018-12-29T14:33:16.059Z,2.25
2018-12-29T14:35:47.035Z,2.21
2018-12-29T14:38:15.897Z,2.20
2018-12-29T14:40:44.702Z,2.29
2018-12-29T14:43:13.712Z,2.33
2018-12-29T14:45:42.506Z,2.39
2018-12-29T14:48:12.998Z,2.63
2018-12-29T14:50:41.837Z,2.44
2018-12-29T14:53:10.857Z,2.25
2018-12-29T14:55:40.511Z,2.21
2018-12-29T14:58:28.371Z,2.14
2018-12-29T15:03:31.046Z,2.15
2018-12-29T15:06:19.154Z,2.14
2018-12-29T15:09:07.212Z,2.15
2018-12-29T15:14:10.558Z,2.18
2018-12-29T15:19:16.189Z,2.46
2018-12-29T15:22:03.974Z,2.60
2018-12-29T15:24:52.297Z,2.66
2018-12-29T15:27:21.287Z,2.39
2018-12-29T15:30:09.623Z,2.27
2018-12-29T15:32:38.569Z,2.18
2018-12-29T15:35:09.083Z,2.17
2018-12-29T15:38:17.578Z,2.39
2018-12-29T15:40:48.161Z,2.13
2018-12-29T15:43:17.266Z,2.15
2018-12-29T15:45:46.050Z,2.12
2018-12-29T15:48:14.925Z,2.02
2018-12-29T15:53:18.487Z,2.06
2018-12-29T15:58:21.928Z,1.88
2018-12-29T16:00:50.728Z,1.88
2018-12-29T16:03:38.604Z,1.76
2018-12-29T16:06:07.438Z,1.73
2018-12-29T16:08:36.259Z,1.80
2018-12-29T16:14:41.685Z,1.97
2018-12-29T16:22:34.756Z,1.70
2018-12-29T16:28:16.928Z,1.67
2018-12-29T16:31:04.821Z,1.66
2018-12-29T16:33:35.262Z,1.58
2018-12-29T16:36:05.795Z,1.61
2018-12-29T16:38:34.487Z,1.58
2018-12-29T16:41:45.479Z,1.53
2018-12-29T16:44:33.501Z,1.70
2018-12-29T16:47:21.637Z,1.91
2018-12-29T16:49:50.346Z,1.97
2018-12-29T16:52:20.852Z,1.77
2018-12-29T16:54:49.571Z,1.64
2018-12-29T16:57:37.702Z,1.55
2018-12-29T17:00:06.714Z,1.52
2018-12-29T17:02:54.728Z,1.55
2018-12-29T17:05:23.432Z,1.63
2018-12-29T17:07:53.881Z,1.56
2018-12-29T17:10:22.601Z,1.52
2018-12-29T17:13:10.605Z,1.47
2018-12-29T17:15:39.309Z,1.48
2018-12-29T17:18:10.332Z,1.39
2018-12-29T17:20:39.045Z,1.39
2018-12-29T17:23:07.746Z,1.43
2018-12-29T17:25:57.642Z,1.35
2018-12-29T17:28:28.490Z,1.33
2018-12-29T17:33:44.404Z,1.35
2018-12-29T17:38:47.854Z,1.31
2018-12-29T17:44:09.652Z,1.29
2018-12-29T17:46:57.589Z,1.27
2018-12-29T17:49:26.352Z,1.38
2018-12-29T17:51:56.782Z,1.33
2018-12-29T17:54:25.475Z,1.34
2018-12-29T17:57:13.504Z,1.34
2018-12-29T17:59:42.193Z,1.29
2018-12-29T18:02:10.985Z,1.36
2018-12-29T18:04:40.031Z,1.36
2018-12-29T18:07:09.227Z,1.33
2018-12-29T18:09:38.004Z,1.42
2018-12-29T18:12:06.685Z,1.53
2018-12-29T18:14:35.699Z,1.49
2018-12-29T18:17:23.750Z,1.48
2018-12-29T18:20:11.768Z,1.46
2018-12-29T18:22:40.468Z,1.44
2018-12-29T18:25:09.232Z,1.53
2018-12-29T18:30:13.745Z,1.79
2018-12-29T18:35:29.596Z,1.64
2018-12-29T18:37:58.304Z,1.61
2018-12-29T18:40:27.368Z,1.67
2018-12-29T18:42:56.120Z,1.62
2018-12-29T18:45:26.612Z,1.59
2018-12-29T18:47:55.319Z,1.61
2018-12-29T18:50:24.097Z,1.52
2018-12-29T18:52:52.856Z,1.51
2018-12-29T18:55:21.643Z,1.55
2018-12-29T18:57:52.124Z,1.54
2018-12-29T19:00:20.888Z,1.44
2018-12-29T19:02:49.620Z,1.43
2018-12-29T19:05:18.392Z,1.45
2018-12-29T19:07:47.167Z,1.46
2018-12-29T19:10:15.927Z,1.46
2018-12-29T19:12:44.623Z,1.46
2018-12-29T19:17:47.772Z,1.48
2018-12-29T19:22:53.276Z,1.43
2018-12-29T19:33:27.595Z,1.40
2018-12-29T19:35:56.704Z,1.42
2018-12-29T19:38:25.395Z,1.44
2018-12-29T19:40:54.721Z,1.46
2018-12-29T19:43:25.127Z,1.43
2018-12-29T19:45:53.806Z,1.42
2018-12-29T19:48:22.791Z,1.45
2018-12-29T19:50:53.205Z,1.50
2018-12-29T19:55:57.546Z,1.59
2018-12-29T20:01:20.206Z,1.61
2018-12-29T20:06:23.039Z,1.57
2018-12-29T20:09:10.933Z,1.59
2018-12-29T20:11:39.630Z,1.58
2018-12-29T20:14:08.341Z,1.56
2018-12-29T20:16:37.030Z,1.54
2018-12-29T20:19:25.189Z,1.56
2018-12-29T20:21:54.154Z,1.62
2018-12-29T20:24:24.545Z,1.66
2018-12-29T20:26:53.223Z,1.67
2018-12-29T20:29:22.320Z,1.66
2018-12-29T20:37:12.595Z,1.61
2018-12-29T20:39:41.285Z,1.71
2018-12-29T20:42:09.984Z,1.64
2018-12-29T20:44:39.030Z,1.66
2018-12-29T20:47:27.038Z,1.64
2018-12-29T20:49:55.780Z,1.73
2018-12-29T20:54:58.966Z,1.86
2018-12-29T20:57:27.650Z,1.88
2018-12-29T20:59:56.365Z,1.89
2018-12-29T21:02:25.048Z,1.83
2018-12-29T21:05:13.075Z,1.86
2018-12-29T21:07:41.830Z,1.84
2018-12-29T21:12:44.719Z,1.82
2018-12-29T21:15:33.065Z,1.87
2018-12-29T21:20:49.662Z,1.88
2018-12-29T21:23:18.686Z,1.94
2018-12-29T21:25:47.364Z,2.11
2018-12-29T21:28:16.044Z,2.18
2018-12-29T21:30:44.722Z,2.15
2018-12-29T21:33:13.496Z,2.11
2018-12-29T21:35:42.197Z,2.05
2018-12-29T21:38:12.703Z,2.12
2018-12-29T21:40:41.461Z,2.18
2018-12-29T21:43:10.133Z,2.20
2018-12-29T21:48:13.480Z,2.19
2018-12-29T21:50:42.193Z,2.11
2018-12-29T21:53:30.118Z,2.14
2018-12-29T21:55:58.813Z,2.14
2018-12-29T21:58:27.847Z,2.08
2018-12-29T22:00:56.830Z,2.07
2018-12-29T22:03:25.528Z,2.16
2018-12-29T22:05:54.216Z,2.30
2018-12-29T22:08:22.928Z,2.30
2018-12-29T22:11:10.935Z,2.20
2018-12-29T22:13:59.022Z,2.16
2018-12-29T22:16:28.047Z,2.08
2018-12-29T22:21:30.684Z,2.08
2018-12-29T22:23:59.377Z,2.09
2018-12-29T22:26:28.071Z,2.14
2018-12-29T22:29:16.073Z,2.21
2018-12-29T22:31:45.069Z,2.33
2018-12-29T22:34:14.051Z,2.40
2018-12-29T22:36:42.737Z,2.29
2018-12-29T22:39:11.500Z,2.20
2018-12-29T22:41:40.195Z,2.28
2018-12-29T22:46:43.680Z,2.21
2018-12-29T22:51:47.067Z,2.24
2018-12-29T22:56:52.377Z,2.26
2018-12-29T22:59:21.156Z,2.20
2018-12-29T23:01:49.848Z,2.18
2018-12-29T23:04:18.585Z,2.23
2018-12-29T23:06:47.549Z,2.27
2018-12-29T23:09:17.974Z,2.21
2018-12-29T23:11:46.729Z,2.31
2018-12-29T23:14:15.428Z,2.33
2018-12-29T23:16:44.440Z,2.33
2018-12-29T23:19:13.138Z,2.40
2018-12-29T23:22:01.428Z,2.49
2018-12-29T23:24:30.499Z,2.39
2018-12-29T23:26:59.173Z,2.35
2018-12-29T23:29:27.864Z,2.27
2018-12-29T23:31:56.560Z,2.26
2018-12-29T23:37:15.151Z,2.26
2018-12-29T23:39:44.184Z,2.23
2018-12-29T23:42:13.247Z,2.23
2018-12-29T23:47:36.148Z,2.30
2018-12-29T23:50:05.266Z,2.30
2018-12-29T23:55:41.538Z,2.39
2018-12-29T23:58:11.990Z,2.36
